ePrivacy and GPDR Cookie Consent by Cookie Consent
EmailTwitter


Observations de surface / Canada / CYYZ (71624)

Régions: Québec | Canada | États-Unis | Europe | France | UK | Ailleurs
Station
Affichage
Infos & localisation pour CYYZ (71624) | Aide pour décoder les METARs

Observations prises le 2023-02-07 à 11H00 UTC à TORONTO A, ON (CYYZ)

Etat du ciel: partiellement nuageux.

Température: -1.0 Celsius

Point de rosée: -3.0 Celsius

Humidité relative: 86%

Facteur vent -6.

Vents: Sud à 15 km/h ou 8 noeuds.

Pression au niveau moyen de la mer: 101.93 kilopascals.

Calage altimétrique: 101.83 kilopascals ou 30.07 pouces de mercure.

Visibilité horizontale: 15.00 milles terrestres ou 24.00 kilomètres.

Hauteur du plafond: 396 mètres ( 1300 pieds ).

Observation METAR:

CYYZ 071100Z 17008KT 15SM BKN013 M01/M03 A3007 RMK SC6 SLP193=